Terminal Aerodrome Forecast
Issued by NWS

Home | Current Version | Previous Version | Text Only | Print | Product List | Glossary On
Versions: 1 2 3 4 5 6 7 8 9 10 11 12 13 14
000
FTUS46 KMTR 300500
TAFSNS
TAF
KSNS 300522Z 3006/3106 27008KT 4SM BR OVC004
     FM301600 VRB03KT 6SM BR OVC007
     FM301800 27005KT P6SM SCT010
     FM302000 27010KT P6SM SKC
     FM310200 27008KT P6SM BKN008=

USA.gov is the U.S. government's official web portal to all federal, state and local government web resources and services.